sensor_id;sensor_type;location;lat;lon;timestamp;P1;durP1;ratioP1;P2;durP2;ratioP2
67726;SDS011;54525;55.680;37.540;2022-07-18T00:02:07;3.97;;;2.03;;
67726;SDS011;54525;55.680;37.540;2022-07-18T00:04:33;4.32;;;1.50;;
67726;SDS011;54525;55.680;37.540;2022-07-18T00:06:58;3.38;;;1.55;;
67726;SDS011;54525;55.680;37.540;2022-07-18T00:09:24;2.65;;;1.60;;
67726;SDS011;54525;55.680;37.540;2022-07-18T00:11:50;5.38;;;1.70;;
67726;SDS011;54525;55.680;37.540;2022-07-18T00:14:17;3.78;;;1.55;;
67726;SDS011;54525;55.680;37.540;2022-07-18T00:16:43;6.57;;;1.50;;
67726;SDS011;54525;55.680;37.540;2022-07-18T00:19:09;6.38;;;1.48;;
67726;SDS011;54525;55.680;37.540;2022-07-18T00:21:34;3.35;;;1.48;;
67726;SDS011;54525;55.680;37.540;2022-07-18T00:24:00;4.10;;;1.40;;
67726;SDS011;54525;55.680;37.540;2022-07-18T00:26:26;2.97;;;1.50;;
67726;SDS011;54525;55.680;37.540;2022-07-18T00:28:52;2.30;;;1.23;;
67726;SDS011;54525;55.680;37.540;2022-07-18T00:31:18;4.88;;;1.50;;
67726;SDS011;54525;55.680;37.540;2022-07-18T00:33:43;3.00;;;1.50;;
67726;SDS011;54525;55.680;37.540;2022-07-18T00:36:09;5.70;;;1.50;;
67726;SDS011;54525;55.680;37.540;2022-07-18T00:38:35;2.95;;;1.27;;
67726;SDS011;54525;55.680;37.540;2022-07-18T00:41:01;3.70;;;1.73;;
67726;SDS011;54525;55.680;37.540;2022-07-18T00:43:26;2.60;;;1.60;;
67726;SDS011;54525;55.680;37.540;2022-07-18T00:45:52;3.72;;;1.73;;
67726;SDS011;54525;55.680;37.540;2022-07-18T00:48:18;2.47;;;1.23;;
67726;SDS011;54525;55.680;37.540;2022-07-18T00:50:44;3.45;;;2.05;;
67726;SDS011;54525;55.680;37.540;2022-07-18T00:53:10;3.17;;;1.55;;
67726;SDS011;54525;55.680;37.540;2022-07-18T00:55:45;3.47;;;1.73;;
67726;SDS011;54525;55.680;37.540;2022-07-18T00:58:12;2.83;;;1.67;;
67726;SDS011;54525;55.680;37.540;2022-07-18T01:00:38;8.30;;;2.08;;
67726;SDS011;54525;55.680;37.540;2022-07-18T01:03:23;2.55;;;1.35;;
67726;SDS011;54525;55.680;37.540;2022-07-18T01:05:49;4.60;;;1.50;;
67726;SDS011;54525;55.680;37.540;2022-07-18T01:08:14;5.00;;;1.45;;
67726;SDS011;54525;55.680;37.540;2022-07-18T01:10:40;2.10;;;1.48;;
67726;SDS011;54525;55.680;37.540;2022-07-18T01:13:06;2.60;;;1.33;;
67726;SDS011;54525;55.680;37.540;2022-07-18T01:15:31;3.10;;;1.70;;
67726;SDS011;54525;55.680;37.540;2022-07-18T01:17:57;2.05;;;1.48;;
67726;SDS011;54525;55.680;37.540;2022-07-18T01:20:29;2.28;;;1.40;;
67726;SDS011;54525;55.680;37.540;2022-07-18T01:22:56;3.15;;;1.58;;
67726;SDS011;54525;55.680;37.540;2022-07-18T01:25:22;2.83;;;1.40;;
67726;SDS011;54525;55.680;37.540;2022-07-18T01:27:48;3.20;;;1.55;;
67726;SDS011;54525;55.680;37.540;2022-07-18T01:30:13;2.13;;;1.50;;
67726;SDS011;54525;55.680;37.540;2022-07-18T01:32:40;2.55;;;1.25;;
67726;SDS011;54525;55.680;37.540;2022-07-18T01:35:06;2.20;;;1.23;;
67726;SDS011;54525;55.680;37.540;2022-07-18T01:37:32;3.15;;;1.10;;
67726;SDS011;54525;55.680;37.540;2022-07-18T01:39:57;1.70;;;1.10;;
67726;SDS011;54525;55.680;37.540;2022-07-18T01:42:23;2.20;;;1.30;;
67726;SDS011;54525;55.680;37.540;2022-07-18T01:44:48;5.05;;;1.40;;
67726;SDS011;54525;55.680;37.540;2022-07-18T01:47:14;1.80;;;1.48;;
67726;SDS011;54525;55.680;37.540;2022-07-18T01:49:40;1.92;;;1.30;;
67726;SDS011;54525;55.680;37.540;2022-07-18T01:52:07;3.28;;;1.80;;
67726;SDS011;54525;55.680;37.540;2022-07-18T01:54:34;2.50;;;1.55;;
67726;SDS011;54525;55.680;37.540;2022-07-18T01:57:02;4.22;;;1.58;;
67726;SDS011;54525;55.680;37.540;2022-07-18T01:59:29;4.63;;;1.80;;
67726;SDS011;54525;55.680;37.540;2022-07-18T02:01:55;1.77;;;1.00;;
67726;SDS011;54525;55.680;37.540;2022-07-18T02:04:20;2.72;;;1.30;;
67726;SDS011;54525;55.680;37.540;2022-07-18T02:07:06;4.00;;;1.50;;
67726;SDS011;54525;55.680;37.540;2022-07-18T02:09:31;3.63;;;1.63;;
67726;SDS011;54525;55.680;37.540;2022-07-18T02:11:57;4.13;;;1.58;;
67726;SDS011;54525;55.680;37.540;2022-07-18T02:14:22;2.28;;;1.40;;
67726;SDS011;54525;55.680;37.540;2022-07-18T02:16:48;2.13;;;1.30;;
67726;SDS011;54525;55.680;37.540;2022-07-18T02:19:13;3.25;;;1.48;;
67726;SDS011;54525;55.680;37.540;2022-07-18T02:21:39;2.45;;;1.45;;
67726;SDS011;54525;55.680;37.540;2022-07-18T02:24:04;1.83;;;1.10;;
67726;SDS011;54525;55.680;37.540;2022-07-18T02:26:29;1.63;;;1.23;;
67726;SDS011;54525;55.680;37.540;2022-07-18T02:28:55;2.72;;;1.30;;
67726;SDS011;54525;55.680;37.540;2022-07-18T02:31:20;3.15;;;1.50;;
67726;SDS011;54525;55.680;37.540;2022-07-18T02:33:48;3.92;;;1.45;;
67726;SDS011;54525;55.680;37.540;2022-07-18T02:36:14;2.88;;;1.88;;
67726;SDS011;54525;55.680;37.540;2022-07-18T02:38:39;1.73;;;1.30;;
67726;SDS011;54525;55.680;37.540;2022-07-18T02:41:05;2.47;;;1.35;;
67726;SDS011;54525;55.680;37.540;2022-07-18T02:43:30;2.35;;;1.58;;
67726;SDS011;54525;55.680;37.540;2022-07-18T02:45:56;2.85;;;1.50;;
67726;SDS011;54525;55.680;37.540;2022-07-18T02:48:21;1.90;;;1.35;;
67726;SDS011;54525;55.680;37.540;2022-07-18T02:50:47;1.83;;;1.25;;
67726;SDS011;54525;55.680;37.540;2022-07-18T02:53:12;2.17;;;1.13;;
67726;SDS011;54525;55.680;37.540;2022-07-18T02:55:38;2.08;;;1.15;;
67726;SDS011;54525;55.680;37.540;2022-07-18T02:58:03;2.30;;;1.30;;
67726;SDS011;54525;55.680;37.540;2022-07-18T03:00:29;2.92;;;1.65;;
67726;SDS011;54525;55.680;37.540;2022-07-18T03:02:54;4.45;;;1.20;;
67726;SDS011;54525;55.680;37.540;2022-07-18T03:05:20;1.60;;;1.20;;
67726;SDS011;54525;55.680;37.540;2022-07-18T03:07:45;3.28;;;1.50;;
67726;SDS011;54525;55.680;37.540;2022-07-18T03:10:11;2.25;;;1.40;;
67726;SDS011;54525;55.680;37.540;2022-07-18T03:12:36;2.88;;;1.42;;
67726;SDS011;54525;55.680;37.540;2022-07-18T03:15:02;2.65;;;1.52;;
67726;SDS011;54525;55.680;37.540;2022-07-18T03:17:28;3.40;;;1.50;;
67726;SDS011;54525;55.680;37.540;2022-07-18T03:19:53;2.55;;;1.30;;
67726;SDS011;54525;55.680;37.540;2022-07-18T03:22:19;5.45;;;1.17;;
67726;SDS011;54525;55.680;37.540;2022-07-18T03:24:44;2.38;;;1.45;;
67726;SDS011;54525;55.680;37.540;2022-07-18T03:27:10;1.73;;;1.10;;
67726;SDS011;54525;55.680;37.540;2022-07-18T03:29:35;2.80;;;1.45;;
67726;SDS011;54525;55.680;37.540;2022-07-18T03:32:01;5.28;;;1.55;;
67726;SDS011;54525;55.680;37.540;2022-07-18T03:34:26;4.35;;;1.50;;
67726;SDS011;54525;55.680;37.540;2022-07-18T03:36:52;2.33;;;1.35;;
67726;SDS011;54525;55.680;37.540;2022-07-18T03:39:17;5.00;;;1.30;;
67726;SDS011;54525;55.680;37.540;2022-07-18T03:41:43;2.50;;;1.27;;
67726;SDS011;54525;55.680;37.540;2022-07-18T03:44:08;1.63;;;1.02;;
67726;SDS011;54525;55.680;37.540;2022-07-18T03:46:34;7.55;;;1.45;;
67726;SDS011;54525;55.680;37.540;2022-07-18T03:49:00;4.43;;;1.45;;
67726;SDS011;54525;55.680;37.540;2022-07-18T03:51:25;4.38;;;1.48;;
67726;SDS011;54525;55.680;37.540;2022-07-18T03:53:51;2.03;;;1.23;;
67726;SDS011;54525;55.680;37.540;2022-07-18T03:56:17;4.82;;;1.45;;
67726;SDS011;54525;55.680;37.540;2022-07-18T03:58:42;2.70;;;1.35;;
67726;SDS011;54525;55.680;37.540;2022-07-18T04:01:08;1.83;;;1.10;;
67726;SDS011;54525;55.680;37.540;2022-07-18T04:03:33;1.80;;;1.08;;
67726;SDS011;54525;55.680;37.540;2022-07-18T04:05:59;2.95;;;1.65;;
67726;SDS011;54525;55.680;37.540;2022-07-18T04:08:24;4.28;;;1.65;;
67726;SDS011;54525;55.680;37.540;2022-07-18T04:10:50;2.65;;;1.30;;
67726;SDS011;54525;55.680;37.540;2022-07-18T04:13:15;4.40;;;1.83;;
67726;SDS011;54525;55.680;37.540;2022-07-18T04:15:41;3.70;;;1.90;;
67726;SDS011;54525;55.680;37.540;2022-07-18T04:18:07;3.45;;;2.10;;
67726;SDS011;54525;55.680;37.540;2022-07-18T04:20:33;3.05;;;1.70;;
67726;SDS011;54525;55.680;37.540;2022-07-18T04:23:01;4.60;;;1.60;;
67726;SDS011;54525;55.680;37.540;2022-07-18T04:25:32;2.92;;;1.45;;
67726;SDS011;54525;55.680;37.540;2022-07-18T04:28:08;3.85;;;1.80;;
67726;SDS011;54525;55.680;37.540;2022-07-18T04:30:36;4.78;;;1.63;;
67726;SDS011;54525;55.680;37.540;2022-07-18T04:33:04;2.72;;;1.63;;
67726;SDS011;54525;55.680;37.540;2022-07-18T04:35:31;2.90;;;1.92;;
67726;SDS011;54525;55.680;37.540;2022-07-18T04:37:57;4.13;;;1.58;;
67726;SDS011;54525;55.680;37.540;2022-07-18T04:40:23;2.50;;;1.73;;
67726;SDS011;54525;55.680;37.540;2022-07-18T04:42:49;2.08;;;1.38;;
67726;SDS011;54525;55.680;37.540;2022-07-18T04:45:15;3.22;;;1.65;;
67726;SDS011;54525;55.680;37.540;2022-07-18T04:47:41;4.00;;;1.35;;
67726;SDS011;54525;55.680;37.540;2022-07-18T04:50:07;4.18;;;2.10;;
67726;SDS011;54525;55.680;37.540;2022-07-18T04:52:39;2.85;;;1.75;;
67726;SDS011;54525;55.680;37.540;2022-07-18T04:55:09;2.53;;;1.70;;
67726;SDS011;54525;55.680;37.540;2022-07-18T04:57:36;2.22;;;1.38;;
67726;SDS011;54525;55.680;37.540;2022-07-18T05:00:05;4.38;;;1.67;;
67726;SDS011;54525;55.680;37.540;2022-07-18T05:02:33;3.97;;;1.70;;
67726;SDS011;54525;55.680;37.540;2022-07-18T05:04:58;3.83;;;1.60;;
67726;SDS011;54525;55.680;37.540;2022-07-18T05:07:24;2.97;;;1.40;;
67726;SDS011;54525;55.680;37.540;2022-07-18T05:09:49;2.70;;;1.30;;
67726;SDS011;54525;55.680;37.540;2022-07-18T05:12:15;5.10;;;1.20;;
67726;SDS011;54525;55.680;37.540;2022-07-18T05:14:40;2.60;;;1.40;;
67726;SDS011;54525;55.680;37.540;2022-07-18T05:17:06;4.28;;;1.40;;
67726;SDS011;54525;55.680;37.540;2022-07-18T05:19:31;3.45;;;1.20;;
67726;SDS011;54525;55.680;37.540;2022-07-18T05:21:57;2.08;;;1.20;;
67726;SDS011;54525;55.680;37.540;2022-07-18T05:24:22;7.70;;;2.45;;
67726;SDS011;54525;55.680;37.540;2022-07-18T05:26:47;4.53;;;1.52;;
67726;SDS011;54525;55.680;37.540;2022-07-18T05:29:13;3.45;;;1.23;;
67726;SDS011;54525;55.680;37.540;2022-07-18T05:31:39;5.63;;;1.00;;
67726;SDS011;54525;55.680;37.540;2022-07-18T05:34:08;2.05;;;1.30;;
67726;SDS011;54525;55.680;37.540;2022-07-18T05:36:34;8.23;;;1.38;;
67726;SDS011;54525;55.680;37.540;2022-07-18T05:38:59;3.53;;;1.25;;
67726;SDS011;54525;55.680;37.540;2022-07-18T05:41:25;1.65;;;1.00;;
67726;SDS011;54525;55.680;37.540;2022-07-18T05:43:52;1.80;;;1.10;;
67726;SDS011;54525;55.680;37.540;2022-07-18T05:46:17;4.05;;;1.75;;
67726;SDS011;54525;55.680;37.540;2022-07-18T05:48:43;4.28;;;1.40;;
67726;SDS011;54525;55.680;37.540;2022-07-18T05:51:08;2.67;;;1.20;;
67726;SDS011;54525;55.680;37.540;2022-07-18T05:53:35;3.70;;;1.42;;
67726;SDS011;54525;55.680;37.540;2022-07-18T05:56:00;2.30;;;1.25;;
67726;SDS011;54525;55.680;37.540;2022-07-18T05:58:26;3.42;;;1.77;;
67726;SDS011;54525;55.680;37.540;2022-07-18T06:00:51;4.18;;;1.45;;
67726;SDS011;54525;55.680;37.540;2022-07-18T06:03:17;3.08;;;1.80;;
67726;SDS011;54525;55.680;37.540;2022-07-18T06:05:42;2.88;;;1.75;;
67726;SDS011;54525;55.680;37.540;2022-07-18T06:08:07;3.70;;;1.73;;
67726;SDS011;54525;55.680;37.540;2022-07-18T06:10:33;8.60;;;3.10;;
67726;SDS011;54525;55.680;37.540;2022-07-18T06:12:59;5.07;;;2.25;;
67726;SDS011;54525;55.680;37.540;2022-07-18T06:15:24;8.75;;;2.03;;
67726;SDS011;54525;55.680;37.540;2022-07-18T06:17:50;7.13;;;2.05;;
67726;SDS011;54525;55.680;37.540;2022-07-18T06:20:16;4.70;;;1.80;;
67726;SDS011;54525;55.680;37.540;2022-07-18T06:22:41;4.40;;;2.05;;
67726;SDS011;54525;55.680;37.540;2022-07-18T06:25:07;7.97;;;2.20;;
67726;SDS011;54525;55.680;37.540;2022-07-18T06:27:33;6.32;;;2.60;;
67726;SDS011;54525;55.680;37.540;2022-07-18T06:30:00;3.88;;;1.80;;
67726;SDS011;54525;55.680;37.540;2022-07-18T06:32:29;5.43;;;1.90;;
67726;SDS011;54525;55.680;37.540;2022-07-18T06:34:55;5.53;;;2.15;;
67726;SDS011;54525;55.680;37.540;2022-07-18T06:37:20;4.13;;;2.50;;
67726;SDS011;54525;55.680;37.540;2022-07-18T06:39:46;6.72;;;2.00;;
67726;SDS011;54525;55.680;37.540;2022-07-18T06:42:11;3.33;;;1.95;;
67726;SDS011;54525;55.680;37.540;2022-07-18T06:44:36;5.32;;;2.10;;
67726;SDS011;54525;55.680;37.540;2022-07-18T06:47:02;2.40;;;1.80;;
67726;SDS011;54525;55.680;37.540;2022-07-18T06:49:27;5.05;;;1.80;;
67726;SDS011;54525;55.680;37.540;2022-07-18T06:51:53;3.55;;;2.05;;
67726;SDS011;54525;55.680;37.540;2022-07-18T06:54:18;4.88;;;2.20;;
67726;SDS011;54525;55.680;37.540;2022-07-18T06:56:45;3.78;;;1.80;;
67726;SDS011;54525;55.680;37.540;2022-07-18T06:59:11;2.95;;;1.75;;
67726;SDS011;54525;55.680;37.540;2022-07-18T07:01:36;3.80;;;2.28;;
67726;SDS011;54525;55.680;37.540;2022-07-18T07:04:01;5.05;;;1.65;;
67726;SDS011;54525;55.680;37.540;2022-07-18T07:06:27;5.38;;;2.00;;
67726;SDS011;54525;55.680;37.540;2022-07-18T07:08:53;3.00;;;1.48;;
67726;SDS011;54525;55.680;37.540;2022-07-18T07:11:18;3.50;;;1.85;;
67726;SDS011;54525;55.680;37.540;2022-07-18T07:13:46;4.82;;;1.90;;
67726;SDS011;54525;55.680;37.540;2022-07-18T07:16:12;6.20;;;1.98;;
67726;SDS011;54525;55.680;37.540;2022-07-18T07:18:38;8.15;;;1.73;;
67726;SDS011;54525;55.680;37.540;2022-07-18T07:21:04;4.25;;;2.00;;
67726;SDS011;54525;55.680;37.540;2022-07-18T07:23:31;5.18;;;2.17;;
67726;SDS011;54525;55.680;37.540;2022-07-18T07:25:56;6.80;;;1.98;;
67726;SDS011;54525;55.680;37.540;2022-07-18T07:28:22;9.18;;;2.97;;
67726;SDS011;54525;55.680;37.540;2022-07-18T07:30:47;4.78;;;2.15;;
67726;SDS011;54525;55.680;37.540;2022-07-18T07:33:13;5.53;;;2.03;;
67726;SDS011;54525;55.680;37.540;2022-07-18T07:35:39;6.72;;;2.50;;
67726;SDS011;54525;55.680;37.540;2022-07-18T07:38:04;4.03;;;1.98;;
67726;SDS011;54525;55.680;37.540;2022-07-18T07:40:30;5.20;;;2.25;;
67726;SDS011;54525;55.680;37.540;2022-07-18T07:43:08;3.17;;;1.83;;
67726;SDS011;54525;55.680;37.540;2022-07-18T07:45:35;9.40;;;2.27;;
67726;SDS011;54525;55.680;37.540;2022-07-18T07:48:02;5.38;;;2.65;;
67726;SDS011;54525;55.680;37.540;2022-07-18T07:50:28;2.65;;;1.48;;
67726;SDS011;54525;55.680;37.540;2022-07-18T07:52:54;5.68;;;1.90;;
67726;SDS011;54525;55.680;37.540;2022-07-18T07:55:21;5.65;;;1.98;;
67726;SDS011;54525;55.680;37.540;2022-07-18T07:57:46;5.43;;;2.30;;
67726;SDS011;54525;55.680;37.540;2022-07-18T08:00:12;4.50;;;2.10;;
67726;SDS011;54525;55.680;37.540;2022-07-18T08:02:51;6.32;;;2.03;;
67726;SDS011;54525;55.680;37.540;2022-07-18T08:05:23;7.50;;;2.47;;
67726;SDS011;54525;55.680;37.540;2022-07-18T08:07:59;5.70;;;2.30;;
67726;SDS011;54525;55.680;37.540;2022-07-18T08:10:25;6.15;;;2.13;;
67726;SDS011;54525;55.680;37.540;2022-07-18T08:12:51;5.18;;;2.03;;
67726;SDS011;54525;55.680;37.540;2022-07-18T08:15:17;4.65;;;1.83;;
67726;SDS011;54525;55.680;37.540;2022-07-18T08:17:43;4.05;;;1.92;;
67726;SDS011;54525;55.680;37.540;2022-07-18T08:20:09;9.40;;;2.17;;
67726;SDS011;54525;55.680;37.540;2022-07-18T08:22:36;5.85;;;2.20;;
67726;SDS011;54525;55.680;37.540;2022-07-18T08:25:18;5.25;;;1.90;;
67726;SDS011;54525;55.680;37.540;2022-07-18T08:27:44;8.30;;;3.03;;
67726;SDS011;54525;55.680;37.540;2022-07-18T08:30:09;4.07;;;2.25;;
67726;SDS011;54525;55.680;37.540;2022-07-18T08:32:35;7.93;;;2.70;;
67726;SDS011;54525;55.680;37.540;2022-07-18T08:35:01;5.90;;;2.80;;
67726;SDS011;54525;55.680;37.540;2022-07-18T08:37:26;7.03;;;2.78;;
67726;SDS011;54525;55.680;37.540;2022-07-18T08:39:51;5.28;;;2.58;;
67726;SDS011;54525;55.680;37.540;2022-07-18T08:42:17;4.20;;;2.50;;
67726;SDS011;54525;55.680;37.540;2022-07-18T08:44:47;8.63;;;2.70;;
67726;SDS011;54525;55.680;37.540;2022-07-18T08:47:13;4.00;;;1.85;;
67726;SDS011;54525;55.680;37.540;2022-07-18T08:49:42;3.92;;;2.22;;
67726;SDS011;54525;55.680;37.540;2022-07-18T08:52:08;8.20;;;1.98;;
67726;SDS011;54525;55.680;37.540;2022-07-18T08:54:35;5.80;;;2.30;;
67726;SDS011;54525;55.680;37.540;2022-07-18T08:57:01;4.03;;;2.47;;
67726;SDS011;54525;55.680;37.540;2022-07-18T08:59:27;6.22;;;2.40;;
67726;SDS011;54525;55.680;37.540;2022-07-18T09:01:52;8.63;;;2.78;;
67726;SDS011;54525;55.680;37.540;2022-07-18T09:07:00;5.63;;;2.42;;
67726;SDS011;54525;55.680;37.540;2022-07-18T09:09:26;3.20;;;1.50;;
67726;SDS011;54525;55.680;37.540;2022-07-18T09:11:52;3.53;;;1.63;;
67726;SDS011;54525;55.680;37.540;2022-07-18T09:14:29;2.45;;;1.40;;
67726;SDS011;54525;55.680;37.540;2022-07-18T09:17:01;5.97;;;2.05;;
67726;SDS011;54525;55.680;37.540;2022-07-18T09:19:26;5.28;;;1.63;;
67726;SDS011;54525;55.680;37.540;2022-07-18T09:21:52;3.88;;;1.70;;
67726;SDS011;54525;55.680;37.540;2022-07-18T09:24:17;4.70;;;2.17;;
67726;SDS011;54525;55.680;37.540;2022-07-18T09:26:43;5.72;;;2.08;;
67726;SDS011;54525;55.680;37.540;2022-07-18T09:29:14;3.25;;;1.77;;
67726;SDS011;54525;55.680;37.540;2022-07-18T09:31:48;3.58;;;1.70;;
67726;SDS011;54525;55.680;37.540;2022-07-18T09:34:15;4.40;;;1.83;;
67726;SDS011;54525;55.680;37.540;2022-07-18T09:37:00;3.80;;;2.15;;
67726;SDS011;54525;55.680;37.540;2022-07-18T09:39:44;4.20;;;1.67;;
67726;SDS011;54525;55.680;37.540;2022-07-18T09:42:16;3.47;;;1.77;;
67726;SDS011;54525;55.680;37.540;2022-07-18T09:44:59;3.03;;;1.65;;
67726;SDS011;54525;55.680;37.540;2022-07-18T09:47:24;7.75;;;2.13;;
67726;SDS011;54525;55.680;37.540;2022-07-18T09:49:50;7.40;;;2.42;;
67726;SDS011;54525;55.680;37.540;2022-07-18T09:52:15;7.15;;;2.00;;
67726;SDS011;54525;55.680;37.540;2022-07-18T09:54:44;6.80;;;1.80;;
67726;SDS011;54525;55.680;37.540;2022-07-18T09:57:25;7.25;;;1.70;;
67726;SDS011;54525;55.680;37.540;2022-07-18T09:59:51;6.65;;;2.35;;
67726;SDS011;54525;55.680;37.540;2022-07-18T10:02:17;4.38;;;1.98;;
67726;SDS011;54525;55.680;37.540;2022-07-18T10:04:44;4.22;;;1.35;;
67726;SDS011;54525;55.680;37.540;2022-07-18T10:07:09;5.82;;;1.98;;
67726;SDS011;54525;55.680;37.540;2022-07-18T10:09:37;3.10;;;1.52;;
67726;SDS011;54525;55.680;37.540;2022-07-18T10:12:03;2.97;;;1.63;;
67726;SDS011;54525;55.680;37.540;2022-07-18T10:14:30;6.85;;;1.60;;
67726;SDS011;54525;55.680;37.540;2022-07-18T10:16:58;3.10;;;1.27;;
67726;SDS011;54525;55.680;37.540;2022-07-18T10:19:24;2.35;;;1.20;;
67726;SDS011;54525;55.680;37.540;2022-07-18T10:21:49;3.88;;;1.45;;
67726;SDS011;54525;55.680;37.540;2022-07-18T10:24:18;4.80;;;1.75;;
67726;SDS011;54525;55.680;37.540;2022-07-18T10:26:45;3.22;;;1.55;;
67726;SDS011;54525;55.680;37.540;2022-07-18T10:30:12;4.78;;;1.40;;
67726;SDS011;54525;55.680;37.540;2022-07-18T10:32:38;4.15;;;1.67;;
67726;SDS011;54525;55.680;37.540;2022-07-18T10:35:05;3.15;;;1.67;;
67726;SDS011;54525;55.680;37.540;2022-07-18T10:37:36;5.97;;;1.55;;
67726;SDS011;54525;55.680;37.540;2022-07-18T10:40:21;2.58;;;1.15;;
67726;SDS011;54525;55.680;37.540;2022-07-18T10:45:55;2.15;;;1.13;;
67726;SDS011;54525;55.680;37.540;2022-07-18T10:51:02;7.93;;;2.08;;
67726;SDS011;54525;55.680;37.540;2022-07-18T10:56:22;20.73;;;5.35;;
67726;SDS011;54525;55.680;37.540;2022-07-18T10:59:14;11.15;;;4.30;;
67726;SDS011;54525;55.680;37.540;2022-07-18T11:01:48;15.20;;;4.95;;
67726;SDS011;54525;55.680;37.540;2022-07-18T11:04:25;12.80;;;3.67;;
67726;SDS011;54525;55.680;37.540;2022-07-18T11:06:53;9.60;;;3.65;;
67726;SDS011;54525;55.680;37.540;2022-07-18T11:09:36;9.63;;;3.25;;
67726;SDS011;54525;55.680;37.540;2022-07-18T11:23:10;8.48;;;3.00;;
67726;SDS011;54525;55.680;37.540;2022-07-18T11:25:39;5.43;;;2.08;;
67726;SDS011;54525;55.680;37.540;2022-07-18T11:28:09;5.97;;;2.58;;
67726;SDS011;54525;55.680;37.540;2022-07-18T11:30:35;6.20;;;2.22;;
67726;SDS011;54525;55.680;37.540;2022-07-18T11:33:02;6.13;;;2.63;;
67726;SDS011;54525;55.680;37.540;2022-07-18T11:35:27;5.93;;;1.88;;
67726;SDS011;54525;55.680;37.540;2022-07-18T11:37:54;6.40;;;2.25;;
67726;SDS011;54525;55.680;37.540;2022-07-18T11:40:20;4.18;;;1.92;;
67726;SDS011;54525;55.680;37.540;2022-07-18T11:42:47;4.40;;;2.22;;
67726;SDS011;54525;55.680;37.540;2022-07-18T11:45:14;4.93;;;2.15;;
67726;SDS011;54525;55.680;37.540;2022-07-18T11:47:53;7.22;;;2.15;;
67726;SDS011;54525;55.680;37.540;2022-07-18T11:50:35;2.78;;;1.60;;
67726;SDS011;54525;55.680;37.540;2022-07-18T11:53:02;3.67;;;2.20;;
67726;SDS011;54525;55.680;37.540;2022-07-18T11:55:32;4.75;;;2.00;;
67726;SDS011;54525;55.680;37.540;2022-07-18T11:58:20;3.33;;;2.17;;
67726;SDS011;54525;55.680;37.540;2022-07-18T12:00:47;3.38;;;1.85;;
67726;SDS011;54525;55.680;37.540;2022-07-18T12:03:19;4.63;;;1.70;;
67726;SDS011;54525;55.680;37.540;2022-07-18T12:05:49;4.00;;;1.65;;
67726;SDS011;54525;55.680;37.540;2022-07-18T12:08:32;4.80;;;2.45;;
67726;SDS011;54525;55.680;37.540;2022-07-18T12:11:10;3.45;;;1.90;;
67726;SDS011;54525;55.680;37.540;2022-07-18T12:19:08;4.13;;;1.75;;
67726;SDS011;54525;55.680;37.540;2022-07-18T12:21:54;2.92;;;1.60;;
67726;SDS011;54525;55.680;37.540;2022-07-18T12:24:26;4.13;;;1.60;;
67726;SDS011;54525;55.680;37.540;2022-07-18T12:27:16;3.10;;;1.70;;
67726;SDS011;54525;55.680;37.540;2022-07-18T12:32:40;2.87;;;1.33;;
67726;SDS011;54525;55.680;37.540;2022-07-18T12:35:26;3.78;;;1.20;;
67726;SDS011;54525;55.680;37.540;2022-07-18T12:40:45;3.53;;;1.33;;
67726;SDS011;54525;55.680;37.540;2022-07-18T12:43:33;3.38;;;1.38;;
67726;SDS011;54525;55.680;37.540;2022-07-18T12:46:06;4.38;;;1.17;;
67726;SDS011;54525;55.680;37.540;2022-07-18T12:48:33;5.20;;;1.48;;
67726;SDS011;54525;55.680;37.540;2022-07-18T12:51:00;1.70;;;0.80;;
67726;SDS011;54525;55.680;37.540;2022-07-18T12:53:28;3.03;;;1.88;;
67726;SDS011;54525;55.680;37.540;2022-07-18T12:55:55;3.53;;;1.30;;
67726;SDS011;54525;55.680;37.540;2022-07-18T12:58:21;2.75;;;1.25;;
67726;SDS011;54525;55.680;37.540;2022-07-18T13:00:47;1.77;;;1.02;;
67726;SDS011;54525;55.680;37.540;2022-07-18T13:03:13;2.08;;;1.10;;
67726;SDS011;54525;55.680;37.540;2022-07-18T13:05:39;2.72;;;1.45;;
67726;SDS011;54525;55.680;37.540;2022-07-18T13:08:05;1.33;;;1.02;;
67726;SDS011;54525;55.680;37.540;2022-07-18T13:10:32;5.30;;;1.38;;
67726;SDS011;54525;55.680;37.540;2022-07-18T13:13:00;5.00;;;1.10;;
67726;SDS011;54525;55.680;37.540;2022-07-18T13:15:27;3.83;;;1.80;;
67726;SDS011;54525;55.680;37.540;2022-07-18T13:17:53;1.65;;;1.00;;
67726;SDS011;54525;55.680;37.540;2022-07-18T13:20:18;1.92;;;0.85;;
67726;SDS011;54525;55.680;37.540;2022-07-18T13:22:44;5.13;;;1.00;;
67726;SDS011;54525;55.680;37.540;2022-07-18T13:25:10;6.93;;;1.20;;
67726;SDS011;54525;55.680;37.540;2022-07-18T13:27:36;1.63;;;1.23;;
67726;SDS011;54525;55.680;37.540;2022-07-18T13:30:03;4.25;;;1.63;;
67726;SDS011;54525;55.680;37.540;2022-07-18T13:32:30;1.80;;;1.08;;
67726;SDS011;54525;55.680;37.540;2022-07-18T13:34:56;2.00;;;1.20;;
67726;SDS011;54525;55.680;37.540;2022-07-18T13:37:21;5.38;;;1.33;;
67726;SDS011;54525;55.680;37.540;2022-07-18T13:39:47;3.90;;;1.23;;
67726;SDS011;54525;55.680;37.540;2022-07-18T13:42:13;5.15;;;1.42;;
67726;SDS011;54525;55.680;37.540;2022-07-18T13:44:38;2.45;;;1.60;;
67726;SDS011;54525;55.680;37.540;2022-07-18T13:47:04;2.10;;;1.20;;
67726;SDS011;54525;55.680;37.540;2022-07-18T13:49:29;5.80;;;1.90;;
67726;SDS011;54525;55.680;37.540;2022-07-18T13:51:55;6.55;;;1.40;;
67726;SDS011;54525;55.680;37.540;2022-07-18T13:54:21;3.70;;;1.40;;
67726;SDS011;54525;55.680;37.540;2022-07-18T13:56:47;3.08;;;1.27;;
67726;SDS011;54525;55.680;37.540;2022-07-18T13:59:12;3.58;;;1.10;;
67726;SDS011;54525;55.680;37.540;2022-07-18T14:01:39;1.65;;;1.00;;
67726;SDS011;54525;55.680;37.540;2022-07-18T14:04:08;2.42;;;1.30;;
67726;SDS011;54525;55.680;37.540;2022-07-18T14:06:34;4.43;;;1.40;;
67726;SDS011;54525;55.680;37.540;2022-07-18T14:09:03;4.28;;;1.10;;
67726;SDS011;54525;55.680;37.540;2022-07-18T14:11:29;2.63;;;1.33;;
67726;SDS011;54525;55.680;37.540;2022-07-18T14:13:57;5.82;;;1.20;;
67726;SDS011;54525;55.680;37.540;2022-07-18T14:16:23;3.13;;;1.00;;
67726;SDS011;54525;55.680;37.540;2022-07-18T14:18:49;2.67;;;1.20;;
67726;SDS011;54525;55.680;37.540;2022-07-18T14:21:15;2.22;;;1.02;;
67726;SDS011;54525;55.680;37.540;2022-07-18T14:23:40;3.05;;;1.20;;
67726;SDS011;54525;55.680;37.540;2022-07-18T14:26:06;2.38;;;1.00;;
67726;SDS011;54525;55.680;37.540;2022-07-18T14:28:31;2.28;;;1.00;;
67726;SDS011;54525;55.680;37.540;2022-07-18T14:30:57;1.92;;;1.00;;
67726;SDS011;54525;55.680;37.540;2022-07-18T14:33:22;2.17;;;1.08;;
67726;SDS011;54525;55.680;37.540;2022-07-18T14:35:48;2.75;;;0.90;;
67726;SDS011;54525;55.680;37.540;2022-07-18T14:38:13;3.13;;;1.02;;
67726;SDS011;54525;55.680;37.540;2022-07-18T14:40:39;1.92;;;1.08;;
67726;SDS011;54525;55.680;37.540;2022-07-18T14:43:04;1.95;;;0.80;;
67726;SDS011;54525;55.680;37.540;2022-07-18T14:45:29;2.28;;;1.00;;
67726;SDS011;54525;55.680;37.540;2022-07-18T14:47:55;4.50;;;1.38;;
67726;SDS011;54525;55.680;37.540;2022-07-18T14:50:20;4.20;;;1.00;;
67726;SDS011;54525;55.680;37.540;2022-07-18T14:52:46;1.65;;;1.02;;
67726;SDS011;54525;55.680;37.540;2022-07-18T14:55:11;1.77;;;0.90;;
67726;SDS011;54525;55.680;37.540;2022-07-18T14:57:37;2.10;;;1.15;;
67726;SDS011;54525;55.680;37.540;2022-07-18T15:00:06;1.67;;;1.00;;
67726;SDS011;54525;55.680;37.540;2022-07-18T15:05:00;3.45;;;1.10;;
67726;SDS011;54525;55.680;37.540;2022-07-18T15:07:26;2.92;;;0.80;;
67726;SDS011;54525;55.680;37.540;2022-07-18T15:09:51;5.10;;;1.20;;
67726;SDS011;54525;55.680;37.540;2022-07-18T15:12:17;4.43;;;0.95;;